sensor_id;sensor_type;location;lat;lon;timestamp;P1;durP1;ratioP1;P2;durP2;ratioP2
14294;SDS011;7231;59.370;18.016;2024-02-14T00:00:07;12.43;;;6.80;;
14294;SDS011;7231;59.370;18.016;2024-02-14T00:02:40;12.80;;;7.43;;
14294;SDS011;7231;59.370;18.016;2024-02-14T00:05:13;10.03;;;5.40;;
14294;SDS011;7231;59.370;18.016;2024-02-14T00:07:41;9.93;;;5.73;;
14294;SDS011;7231;59.370;18.016;2024-02-14T00:10:09;14.43;;;6.90;;
14294;SDS011;7231;59.370;18.016;2024-02-14T00:12:38;13.10;;;7.57;;
14294;SDS011;7231;59.370;18.016;2024-02-14T00:15:06;12.87;;;7.43;;
14294;SDS011;7231;59.370;18.016;2024-02-14T00:17:35;13.60;;;6.97;;
14294;SDS011;7231;59.370;18.016;2024-02-14T00:20:03;13.23;;;8.37;;
14294;SDS011;7231;59.370;18.016;2024-02-14T00:22:34;13.63;;;8.13;;
14294;SDS011;7231;59.370;18.016;2024-02-14T00:25:02;11.93;;;7.37;;
14294;SDS011;7231;59.370;18.016;2024-02-14T00:27:31;13.33;;;8.10;;
14294;SDS011;7231;59.370;18.016;2024-02-14T00:29:59;12.10;;;6.87;;
14294;SDS011;7231;59.370;18.016;2024-02-14T00:32:30;11.03;;;6.10;;
14294;SDS011;7231;59.370;18.016;2024-02-14T00:34:58;17.70;;;6.60;;
14294;SDS011;7231;59.370;18.016;2024-02-14T00:37:27;11.83;;;6.83;;
14294;SDS011;7231;59.370;18.016;2024-02-14T00:39:57;11.23;;;6.30;;
14294;SDS011;7231;59.370;18.016;2024-02-14T00:42:25;13.67;;;7.30;;
14294;SDS011;7231;59.370;18.016;2024-02-14T00:44:53;13.33;;;7.27;;
14294;SDS011;7231;59.370;18.016;2024-02-14T00:47:22;16.40;;;6.90;;
14294;SDS011;7231;59.370;18.016;2024-02-14T00:49:50;17.50;;;6.50;;
14294;SDS011;7231;59.370;18.016;2024-02-14T00:52:18;14.93;;;7.10;;
14294;SDS011;7231;59.370;18.016;2024-02-14T00:54:48;15.30;;;7.37;;
14294;SDS011;7231;59.370;18.016;2024-02-14T00:57:17;13.40;;;6.37;;
14294;SDS011;7231;59.370;18.016;2024-02-14T00:59:45;12.50;;;6.57;;
14294;SDS011;7231;59.370;18.016;2024-02-14T01:02:16;15.93;;;8.20;;
14294;SDS011;7231;59.370;18.016;2024-02-14T01:04:44;11.57;;;4.70;;
14294;SDS011;7231;59.370;18.016;2024-02-14T01:07:13;16.87;;;7.20;;
14294;SDS011;7231;59.370;18.016;2024-02-14T01:09:41;10.67;;;5.83;;
14294;SDS011;7231;59.370;18.016;2024-02-14T01:12:09;16.63;;;7.23;;
14294;SDS011;7231;59.370;18.016;2024-02-14T01:14:39;15.77;;;7.57;;
14294;SDS011;7231;59.370;18.016;2024-02-14T01:17:07;16.13;;;8.10;;
14294;SDS011;7231;59.370;18.016;2024-02-14T01:19:35;18.47;;;6.57;;
14294;SDS011;7231;59.370;18.016;2024-02-14T01:22:03;15.97;;;8.17;;
14294;SDS011;7231;59.370;18.016;2024-02-14T01:24:31;14.53;;;8.10;;
14294;SDS011;7231;59.370;18.016;2024-02-14T01:27:00;14.67;;;7.53;;
14294;SDS011;7231;59.370;18.016;2024-02-14T01:29:42;13.90;;;6.57;;
14294;SDS011;7231;59.370;18.016;2024-02-14T01:32:10;18.17;;;8.60;;
14294;SDS011;7231;59.370;18.016;2024-02-14T01:34:38;15.73;;;8.23;;
14294;SDS011;7231;59.370;18.016;2024-02-14T01:37:08;18.03;;;7.70;;
14294;SDS011;7231;59.370;18.016;2024-02-14T01:39:36;19.03;;;8.83;;
14294;SDS011;7231;59.370;18.016;2024-02-14T01:42:04;19.00;;;8.23;;
14294;SDS011;7231;59.370;18.016;2024-02-14T01:44:33;22.20;;;10.50;;
14294;SDS011;7231;59.370;18.016;2024-02-14T01:47:04;23.47;;;10.53;;
14294;SDS011;7231;59.370;18.016;2024-02-14T01:49:33;18.83;;;9.93;;
14294;SDS011;7231;59.370;18.016;2024-02-14T01:52:03;20.47;;;10.00;;
14294;SDS011;7231;59.370;18.016;2024-02-14T01:54:32;19.27;;;10.33;;
14294;SDS011;7231;59.370;18.016;2024-02-14T01:57:02;19.43;;;9.23;;
14294;SDS011;7231;59.370;18.016;2024-02-14T01:59:33;14.63;;;8.73;;
14294;SDS011;7231;59.370;18.016;2024-02-14T02:02:04;16.63;;;8.73;;
14294;SDS011;7231;59.370;18.016;2024-02-14T02:04:33;17.27;;;9.03;;
14294;SDS011;7231;59.370;18.016;2024-02-14T02:07:02;16.87;;;7.87;;
14294;SDS011;7231;59.370;18.016;2024-02-14T02:09:30;12.10;;;7.17;;
14294;SDS011;7231;59.370;18.016;2024-02-14T02:11:59;13.10;;;7.03;;
14294;SDS011;7231;59.370;18.016;2024-02-14T02:14:28;17.20;;;9.33;;
14294;SDS011;7231;59.370;18.016;2024-02-14T02:16:56;14.87;;;7.03;;
14294;SDS011;7231;59.370;18.016;2024-02-14T02:19:26;15.17;;;8.57;;
14294;SDS011;7231;59.370;18.016;2024-02-14T02:21:55;12.57;;;6.77;;
14294;SDS011;7231;59.370;18.016;2024-02-14T02:24:25;13.53;;;7.07;;
14294;SDS011;7231;59.370;18.016;2024-02-14T02:26:53;13.13;;;7.87;;
14294;SDS011;7231;59.370;18.016;2024-02-14T02:29:23;12.63;;;7.27;;
14294;SDS011;7231;59.370;18.016;2024-02-14T02:31:51;11.23;;;7.10;;
14294;SDS011;7231;59.370;18.016;2024-02-14T02:34:19;13.10;;;7.27;;
14294;SDS011;7231;59.370;18.016;2024-02-14T02:36:48;11.80;;;7.07;;
14294;SDS011;7231;59.370;18.016;2024-02-14T02:39:17;12.30;;;6.97;;
14294;SDS011;7231;59.370;18.016;2024-02-14T02:41:46;13.53;;;7.70;;
14294;SDS011;7231;59.370;18.016;2024-02-14T02:44:16;13.20;;;7.07;;
14294;SDS011;7231;59.370;18.016;2024-02-14T02:46:44;13.53;;;7.40;;
14294;SDS011;7231;59.370;18.016;2024-02-14T02:49:12;13.90;;;7.60;;
14294;SDS011;7231;59.370;18.016;2024-02-14T02:51:41;14.63;;;7.63;;
14294;SDS011;7231;59.370;18.016;2024-02-14T02:54:09;16.43;;;8.07;;
14294;SDS011;7231;59.370;18.016;2024-02-14T02:56:38;13.40;;;7.60;;
14294;SDS011;7231;59.370;18.016;2024-02-14T02:59:08;15.63;;;7.93;;
14294;SDS011;7231;59.370;18.016;2024-02-14T03:01:36;16.10;;;8.20;;
14294;SDS011;7231;59.370;18.016;2024-02-14T03:04:06;16.50;;;9.20;;
14294;SDS011;7231;59.370;18.016;2024-02-14T03:06:34;16.80;;;8.43;;
14294;SDS011;7231;59.370;18.016;2024-02-14T03:09:03;16.00;;;8.57;;
14294;SDS011;7231;59.370;18.016;2024-02-14T03:11:34;15.07;;;7.97;;
14294;SDS011;7231;59.370;18.016;2024-02-14T03:14:03;15.97;;;9.17;;
14294;SDS011;7231;59.370;18.016;2024-02-14T03:16:33;14.63;;;7.90;;
14294;SDS011;7231;59.370;18.016;2024-02-14T03:19:04;13.90;;;8.57;;
14294;SDS011;7231;59.370;18.016;2024-02-14T03:21:32;17.43;;;8.87;;
14294;SDS011;7231;59.370;18.016;2024-02-14T03:24:02;20.57;;;10.03;;
14294;SDS011;7231;59.370;18.016;2024-02-14T03:26:31;16.50;;;8.90;;
14294;SDS011;7231;59.370;18.016;2024-02-14T03:29:00;16.93;;;9.20;;
14294;SDS011;7231;59.370;18.016;2024-02-14T03:31:31;15.03;;;8.57;;
14294;SDS011;7231;59.370;18.016;2024-02-14T03:34:04;20.30;;;10.97;;
14294;SDS011;7231;59.370;18.016;2024-02-14T03:36:32;18.30;;;9.73;;
14294;SDS011;7231;59.370;18.016;2024-02-14T03:39:01;16.07;;;9.20;;
14294;SDS011;7231;59.370;18.016;2024-02-14T03:41:31;16.37;;;9.47;;
14294;SDS011;7231;59.370;18.016;2024-02-14T03:43:59;15.63;;;9.20;;
14294;SDS011;7231;59.370;18.016;2024-02-14T03:46:29;16.90;;;9.37;;
14294;SDS011;7231;59.370;18.016;2024-02-14T03:48:58;18.80;;;10.37;;
14294;SDS011;7231;59.370;18.016;2024-02-14T03:51:28;20.93;;;10.37;;
14294;SDS011;7231;59.370;18.016;2024-02-14T03:53:56;19.03;;;10.00;;
14294;SDS011;7231;59.370;18.016;2024-02-14T03:56:24;18.43;;;10.23;;
14294;SDS011;7231;59.370;18.016;2024-02-14T03:58:53;21.53;;;11.07;;
14294;SDS011;7231;59.370;18.016;2024-02-14T04:01:21;18.70;;;10.30;;
14294;SDS011;7231;59.370;18.016;2024-02-14T04:03:50;20.20;;;10.63;;
14294;SDS011;7231;59.370;18.016;2024-02-14T04:06:18;22.37;;;10.53;;
14294;SDS011;7231;59.370;18.016;2024-02-14T04:08:50;21.43;;;11.47;;
14294;SDS011;7231;59.370;18.016;2024-02-14T04:11:18;18.47;;;10.77;;
14294;SDS011;7231;59.370;18.016;2024-02-14T04:13:47;22.10;;;11.33;;
14294;SDS011;7231;59.370;18.016;2024-02-14T04:16:16;22.10;;;10.80;;
14294;SDS011;7231;59.370;18.016;2024-02-14T04:18:47;18.80;;;11.03;;
14294;SDS011;7231;59.370;18.016;2024-02-14T04:21:15;21.77;;;11.00;;
14294;SDS011;7231;59.370;18.016;2024-02-14T04:23:43;20.43;;;10.97;;
14294;SDS011;7231;59.370;18.016;2024-02-14T04:26:19;18.33;;;10.10;;
14294;SDS011;7231;59.370;18.016;2024-02-14T04:28:47;17.27;;;10.03;;
14294;SDS011;7231;59.370;18.016;2024-02-14T04:31:16;22.23;;;11.30;;
14294;SDS011;7231;59.370;18.016;2024-02-14T04:33:44;20.33;;;10.40;;
14294;SDS011;7231;59.370;18.016;2024-02-14T04:36:17;20.60;;;10.50;;
14294;SDS011;7231;59.370;18.016;2024-02-14T04:38:46;21.17;;;11.80;;
14294;SDS011;7231;59.370;18.016;2024-02-14T04:41:14;21.13;;;12.27;;
14294;SDS011;7231;59.370;18.016;2024-02-14T04:43:44;30.43;;;16.43;;
14294;SDS011;7231;59.370;18.016;2024-02-14T04:46:12;20.90;;;11.13;;
14294;SDS011;7231;59.370;18.016;2024-02-14T04:48:40;21.43;;;11.17;;
14294;SDS011;7231;59.370;18.016;2024-02-14T04:51:09;21.57;;;11.67;;
14294;SDS011;7231;59.370;18.016;2024-02-14T04:53:37;20.70;;;11.27;;
14294;SDS011;7231;59.370;18.016;2024-02-14T04:56:05;20.83;;;11.17;;
14294;SDS011;7231;59.370;18.016;2024-02-14T04:58:34;22.03;;;11.83;;
14294;SDS011;7231;59.370;18.016;2024-02-14T05:01:04;22.43;;;12.13;;
14294;SDS011;7231;59.370;18.016;2024-02-14T05:03:33;20.77;;;11.33;;
14294;SDS011;7231;59.370;18.016;2024-02-14T05:06:03;22.87;;;11.90;;
14294;SDS011;7231;59.370;18.016;2024-02-14T05:08:32;21.37;;;11.53;;
14294;SDS011;7231;59.370;18.016;2024-02-14T05:11:00;20.47;;;11.73;;
14294;SDS011;7231;59.370;18.016;2024-02-14T05:13:29;23.30;;;12.10;;
14294;SDS011;7231;59.370;18.016;2024-02-14T05:15:57;21.83;;;11.43;;
14294;SDS011;7231;59.370;18.016;2024-02-14T05:18:26;21.87;;;12.37;;
14294;SDS011;7231;59.370;18.016;2024-02-14T05:20:54;20.70;;;11.63;;
14294;SDS011;7231;59.370;18.016;2024-02-14T05:23:23;23.10;;;12.37;;
14294;SDS011;7231;59.370;18.016;2024-02-14T05:25:51;22.67;;;11.87;;
14294;SDS011;7231;59.370;18.016;2024-02-14T05:28:20;23.00;;;12.13;;
14294;SDS011;7231;59.370;18.016;2024-02-14T05:30:48;24.43;;;12.80;;
14294;SDS011;7231;59.370;18.016;2024-02-14T05:33:16;27.73;;;13.17;;
14294;SDS011;7231;59.370;18.016;2024-02-14T05:35:47;22.23;;;12.37;;
14294;SDS011;7231;59.370;18.016;2024-02-14T05:38:16;22.13;;;12.70;;
14294;SDS011;7231;59.370;18.016;2024-02-14T05:40:46;21.03;;;12.83;;
14294;SDS011;7231;59.370;18.016;2024-02-14T05:43:14;22.57;;;13.27;;
14294;SDS011;7231;59.370;18.016;2024-02-14T05:45:44;22.87;;;13.33;;
14294;SDS011;7231;59.370;18.016;2024-02-14T05:48:12;23.50;;;12.80;;
14294;SDS011;7231;59.370;18.016;2024-02-14T05:50:41;22.83;;;12.33;;
14294;SDS011;7231;59.370;18.016;2024-02-14T05:53:11;21.90;;;13.43;;
14294;SDS011;7231;59.370;18.016;2024-02-14T05:55:39;22.80;;;12.07;;
14294;SDS011;7231;59.370;18.016;2024-02-14T05:58:07;23.80;;;12.23;;
14294;SDS011;7231;59.370;18.016;2024-02-14T06:00:35;23.53;;;12.57;;
14294;SDS011;7231;59.370;18.016;2024-02-14T06:03:04;22.03;;;12.47;;
14294;SDS011;7231;59.370;18.016;2024-02-14T06:05:33;21.27;;;11.80;;
14294;SDS011;7231;59.370;18.016;2024-02-14T06:08:02;23.40;;;12.53;;
14294;SDS011;7231;59.370;18.016;2024-02-14T06:10:31;23.37;;;12.47;;
14294;SDS011;7231;59.370;18.016;2024-02-14T06:13:01;21.30;;;12.50;;
14294;SDS011;7231;59.370;18.016;2024-02-14T06:15:29;21.77;;;12.40;;
14294;SDS011;7231;59.370;18.016;2024-02-14T06:17:57;25.30;;;12.83;;
14294;SDS011;7231;59.370;18.016;2024-02-14T06:20:25;25.87;;;12.50;;
14294;SDS011;7231;59.370;18.016;2024-02-14T06:22:53;21.17;;;11.97;;
14294;SDS011;7231;59.370;18.016;2024-02-14T06:25:32;24.80;;;12.87;;
14294;SDS011;7231;59.370;18.016;2024-02-14T06:28:02;20.60;;;11.90;;
14294;SDS011;7231;59.370;18.016;2024-02-14T06:30:30;22.43;;;12.97;;
14294;SDS011;7231;59.370;18.016;2024-02-14T06:32:59;24.30;;;12.50;;
14294;SDS011;7231;59.370;18.016;2024-02-14T06:35:29;24.23;;;11.20;;
14294;SDS011;7231;59.370;18.016;2024-02-14T06:37:58;21.63;;;12.20;;
14294;SDS011;7231;59.370;18.016;2024-02-14T06:40:32;29.67;;;13.03;;
14294;SDS011;7231;59.370;18.016;2024-02-14T06:43:00;20.70;;;11.30;;
14294;SDS011;7231;59.370;18.016;2024-02-14T06:45:29;23.43;;;12.20;;
14294;SDS011;7231;59.370;18.016;2024-02-14T06:47:57;24.30;;;11.93;;
14294;SDS011;7231;59.370;18.016;2024-02-14T06:50:25;23.17;;;11.57;;
14294;SDS011;7231;59.370;18.016;2024-02-14T06:52:55;23.67;;;12.43;;
14294;SDS011;7231;59.370;18.016;2024-02-14T06:55:26;22.30;;;12.60;;
14294;SDS011;7231;59.370;18.016;2024-02-14T06:57:58;26.53;;;12.90;;
14294;SDS011;7231;59.370;18.016;2024-02-14T07:00:27;27.23;;;13.73;;
14294;SDS011;7231;59.370;18.016;2024-02-14T07:02:56;30.40;;;13.60;;
14294;SDS011;7231;59.370;18.016;2024-02-14T07:05:24;32.47;;;13.60;;
14294;SDS011;7231;59.370;18.016;2024-02-14T07:07:52;32.73;;;13.13;;
14294;SDS011;7231;59.370;18.016;2024-02-14T07:10:20;29.23;;;13.53;;
14294;SDS011;7231;59.370;18.016;2024-02-14T07:12:49;38.47;;;15.27;;
14294;SDS011;7231;59.370;18.016;2024-02-14T07:15:18;34.53;;;14.33;;
14294;SDS011;7231;59.370;18.016;2024-02-14T07:17:47;30.87;;;15.23;;
14294;SDS011;7231;59.370;18.016;2024-02-14T07:20:15;35.30;;;15.07;;
14294;SDS011;7231;59.370;18.016;2024-02-14T07:22:44;34.57;;;14.03;;
14294;SDS011;7231;59.370;18.016;2024-02-14T07:25:14;39.10;;;14.33;;
14294;SDS011;7231;59.370;18.016;2024-02-14T07:27:42;38.77;;;15.20;;
14294;SDS011;7231;59.370;18.016;2024-02-14T07:30:10;34.10;;;14.03;;
14294;SDS011;7231;59.370;18.016;2024-02-14T07:32:40;34.47;;;13.57;;
14294;SDS011;7231;59.370;18.016;2024-02-14T07:35:08;33.13;;;14.13;;
14294;SDS011;7231;59.370;18.016;2024-02-14T07:37:37;36.03;;;14.43;;
14294;SDS011;7231;59.370;18.016;2024-02-14T07:40:05;40.70;;;15.07;;
14294;SDS011;7231;59.370;18.016;2024-02-14T07:42:34;43.57;;;15.13;;
14294;SDS011;7231;59.370;18.016;2024-02-14T07:45:02;37.23;;;14.67;;
14294;SDS011;7231;59.370;18.016;2024-02-14T07:47:31;41.57;;;15.50;;
14294;SDS011;7231;59.370;18.016;2024-02-14T07:50:01;46.00;;;15.13;;
14294;SDS011;7231;59.370;18.016;2024-02-14T07:52:29;49.03;;;15.87;;
14294;SDS011;7231;59.370;18.016;2024-02-14T07:55:01;39.57;;;15.27;;
14294;SDS011;7231;59.370;18.016;2024-02-14T07:57:29;44.03;;;16.10;;
14294;SDS011;7231;59.370;18.016;2024-02-14T07:59:58;40.57;;;14.47;;
14294;SDS011;7231;59.370;18.016;2024-02-14T08:02:26;43.23;;;15.20;;
14294;SDS011;7231;59.370;18.016;2024-02-14T08:04:56;39.80;;;14.40;;
14294;SDS011;7231;59.370;18.016;2024-02-14T08:07:25;37.10;;;14.80;;
14294;SDS011;7231;59.370;18.016;2024-02-14T08:09:54;29.33;;;10.07;;
14294;SDS011;7231;59.370;18.016;2024-02-14T08:12:22;45.17;;;15.33;;
14294;SDS011;7231;59.370;18.016;2024-02-14T08:14:52;43.93;;;14.57;;
14294;SDS011;7231;59.370;18.016;2024-02-14T08:17:20;40.23;;;15.07;;
14294;SDS011;7231;59.370;18.016;2024-02-14T08:19:48;39.40;;;15.23;;
14294;SDS011;7231;59.370;18.016;2024-02-14T08:22:16;43.50;;;13.83;;
14294;SDS011;7231;59.370;18.016;2024-02-14T08:24:46;36.10;;;13.93;;
14294;SDS011;7231;59.370;18.016;2024-02-14T08:27:14;46.13;;;14.97;;
14294;SDS011;7231;59.370;18.016;2024-02-14T08:29:42;39.13;;;15.47;;
14294;SDS011;7231;59.370;18.016;2024-02-14T08:32:12;37.73;;;15.20;;
14294;SDS011;7231;59.370;18.016;2024-02-14T08:34:40;37.73;;;14.77;;
14294;SDS011;7231;59.370;18.016;2024-02-14T08:37:08;36.63;;;14.77;;
14294;SDS011;7231;59.370;18.016;2024-02-14T08:39:37;34.93;;;14.97;;
14294;SDS011;7231;59.370;18.016;2024-02-14T08:42:06;36.20;;;14.70;;
14294;SDS011;7231;59.370;18.016;2024-02-14T08:44:35;33.20;;;13.77;;
14294;SDS011;7231;59.370;18.016;2024-02-14T08:47:04;31.50;;;13.67;;
14294;SDS011;7231;59.370;18.016;2024-02-14T08:49:32;31.13;;;13.93;;
14294;SDS011;7231;59.370;18.016;2024-02-14T08:52:00;33.87;;;13.40;;
14294;SDS011;7231;59.370;18.016;2024-02-14T08:54:28;29.07;;;12.20;;
14294;SDS011;7231;59.370;18.016;2024-02-14T08:56:59;31.17;;;12.77;;
14294;SDS011;7231;59.370;18.016;2024-02-14T08:59:30;27.80;;;11.67;;
14294;SDS011;7231;59.370;18.016;2024-02-14T09:01:59;19.77;;;9.67;;
14294;SDS011;7231;59.370;18.016;2024-02-14T09:04:28;24.53;;;9.60;;
14294;SDS011;7231;59.370;18.016;2024-02-14T09:06:56;18.97;;;7.57;;
14294;SDS011;7231;59.370;18.016;2024-02-14T09:09:24;14.90;;;7.50;;
14294;SDS011;7231;59.370;18.016;2024-02-14T09:11:53;18.57;;;7.63;;
14294;SDS011;7231;59.370;18.016;2024-02-14T09:14:21;10.57;;;5.50;;
14294;SDS011;7231;59.370;18.016;2024-02-14T09:16:53;13.37;;;6.10;;
14294;SDS011;7231;59.370;18.016;2024-02-14T09:19:23;12.47;;;6.53;;
14294;SDS011;7231;59.370;18.016;2024-02-14T09:21:54;12.67;;;5.90;;
14294;SDS011;7231;59.370;18.016;2024-02-14T09:24:23;13.53;;;6.93;;
14294;SDS011;7231;59.370;18.016;2024-02-14T09:26:52;14.43;;;6.60;;
14294;SDS011;7231;59.370;18.016;2024-02-14T09:29:20;12.97;;;6.97;;
14294;SDS011;7231;59.370;18.016;2024-02-14T09:31:49;17.07;;;7.83;;
14294;SDS011;7231;59.370;18.016;2024-02-14T09:34:19;16.43;;;8.47;;
14294;SDS011;7231;59.370;18.016;2024-02-14T09:36:48;16.30;;;7.73;;
14294;SDS011;7231;59.370;18.016;2024-02-14T09:39:18;21.97;;;8.23;;
14294;SDS011;7231;59.370;18.016;2024-02-14T09:41:48;18.00;;;7.93;;
14294;SDS011;7231;59.370;18.016;2024-02-14T09:44:21;18.40;;;8.50;;
14294;SDS011;7231;59.370;18.016;2024-02-14T09:46:50;17.73;;;9.20;;
14294;SDS011;7231;59.370;18.016;2024-02-14T09:49:21;16.87;;;8.23;;
14294;SDS011;7231;59.370;18.016;2024-02-14T09:51:50;21.23;;;9.60;;
14294;SDS011;7231;59.370;18.016;2024-02-14T09:54:19;20.63;;;8.77;;
14294;SDS011;7231;59.370;18.016;2024-02-14T09:56:49;18.27;;;9.33;;
14294;SDS011;7231;59.370;18.016;2024-02-14T09:59:21;21.60;;;9.30;;
14294;SDS011;7231;59.370;18.016;2024-02-14T10:01:50;21.10;;;10.30;;
14294;SDS011;7231;59.370;18.016;2024-02-14T10:04:19;21.53;;;9.83;;
14294;SDS011;7231;59.370;18.016;2024-02-14T10:06:52;24.17;;;10.77;;
14294;SDS011;7231;59.370;18.016;2024-02-14T10:09:20;22.10;;;10.70;;
14294;SDS011;7231;59.370;18.016;2024-02-14T10:11:49;26.83;;;10.47;;
14294;SDS011;7231;59.370;18.016;2024-02-14T10:14:17;28.53;;;11.47;;
14294;SDS011;7231;59.370;18.016;2024-02-14T10:16:45;22.20;;;10.23;;
14294;SDS011;7231;59.370;18.016;2024-02-14T10:19:14;23.27;;;10.90;;
14294;SDS011;7231;59.370;18.016;2024-02-14T10:21:45;22.63;;;9.73;;
14294;SDS011;7231;59.370;18.016;2024-02-14T10:24:23;22.33;;;10.77;;
14294;SDS011;7231;59.370;18.016;2024-02-14T10:26:52;21.13;;;10.33;;
14294;SDS011;7231;59.370;18.016;2024-02-14T10:29:24;20.37;;;9.93;;
14294;SDS011;7231;59.370;18.016;2024-02-14T10:31:53;16.57;;;9.17;;
14294;SDS011;7231;59.370;18.016;2024-02-14T10:34:24;19.90;;;8.83;;
14294;SDS011;7231;59.370;18.016;2024-02-14T10:36:56;21.07;;;9.80;;
14294;SDS011;7231;59.370;18.016;2024-02-14T10:39:26;20.47;;;9.73;;
14294;SDS011;7231;59.370;18.016;2024-02-14T10:41:57;26.77;;;11.43;;
14294;SDS011;7231;59.370;18.016;2024-02-14T10:44:26;19.97;;;9.97;;
14294;SDS011;7231;59.370;18.016;2024-02-14T10:46:55;24.27;;;11.40;;
14294;SDS011;7231;59.370;18.016;2024-02-14T10:49:29;25.50;;;11.13;;
14294;SDS011;7231;59.370;18.016;2024-02-14T10:52:01;25.77;;;11.53;;
14294;SDS011;7231;59.370;18.016;2024-02-14T10:54:33;22.40;;;11.13;;
14294;SDS011;7231;59.370;18.016;2024-02-14T10:57:04;24.93;;;11.37;;
14294;SDS011;7231;59.370;18.016;2024-02-14T10:59:38;24.90;;;11.83;;
14294;SDS011;7231;59.370;18.016;2024-02-14T11:02:11;26.33;;;11.90;;
14294;SDS011;7231;59.370;18.016;2024-02-14T11:04:40;27.47;;;12.23;;
14294;SDS011;7231;59.370;18.016;2024-02-14T11:07:10;22.33;;;12.03;;
14294;SDS011;7231;59.370;18.016;2024-02-14T11:09:40;23.23;;;11.83;;
14294;SDS011;7231;59.370;18.016;2024-02-14T11:12:08;24.80;;;12.33;;
14294;SDS011;7231;59.370;18.016;2024-02-14T11:14:37;23.83;;;12.00;;
14294;SDS011;7231;59.370;18.016;2024-02-14T11:17:12;31.23;;;14.43;;
14294;SDS011;7231;59.370;18.016;2024-02-14T11:19:40;27.00;;;11.67;;
14294;SDS011;7231;59.370;18.016;2024-02-14T11:22:19;23.27;;;11.40;;
14294;SDS011;7231;59.370;18.016;2024-02-14T11:24:49;23.43;;;11.53;;
14294;SDS011;7231;59.370;18.016;2024-02-14T11:27:17;23.77;;;11.77;;
14294;SDS011;7231;59.370;18.016;2024-02-14T11:30:00;23.33;;;12.00;;
14294;SDS011;7231;59.370;18.016;2024-02-14T11:32:31;28.97;;;11.90;;
14294;SDS011;7231;59.370;18.016;2024-02-14T11:35:00;23.97;;;11.57;;
14294;SDS011;7231;59.370;18.016;2024-02-14T11:37:30;26.17;;;11.33;;
14294;SDS011;7231;59.370;18.016;2024-02-14T11:39:58;25.27;;;12.00;;
14294;SDS011;7231;59.370;18.016;2024-02-14T11:42:29;25.03;;;11.10;;
14294;SDS011;7231;59.370;18.016;2024-02-14T11:44:57;24.03;;;11.83;;
14294;SDS011;7231;59.370;18.016;2024-02-14T11:47:25;31.87;;;11.63;;
14294;SDS011;7231;59.370;18.016;2024-02-14T11:49:54;24.53;;;11.33;;
14294;SDS011;7231;59.370;18.016;2024-02-14T11:52:25;24.47;;;11.10;;
14294;SDS011;7231;59.370;18.016;2024-02-14T11:54:55;26.13;;;11.13;;
14294;SDS011;7231;59.370;18.016;2024-02-14T11:57:23;21.77;;;10.33;;
14294;SDS011;7231;59.370;18.016;2024-02-14T11:59:52;19.03;;;10.10;;
14294;SDS011;7231;59.370;18.016;2024-02-14T12:02:20;21.23;;;9.77;;
14294;SDS011;7231;59.370;18.016;2024-02-14T12:04:49;24.23;;;10.53;;
14294;SDS011;7231;59.370;18.016;2024-02-14T12:07:20;19.20;;;9.80;;
14294;SDS011;7231;59.370;18.016;2024-02-14T12:09:49;21.00;;;9.20;;
14294;SDS011;7231;59.370;18.016;2024-02-14T12:12:18;26.23;;;12.23;;
14294;SDS011;7231;59.370;18.016;2024-02-14T12:14:47;19.07;;;9.00;;
14294;SDS011;7231;59.370;18.016;2024-02-14T12:17:16;20.23;;;8.83;;
14294;SDS011;7231;59.370;18.016;2024-02-14T12:19:45;23.43;;;9.33;;
14294;SDS011;7231;59.370;18.016;2024-02-14T12:22:15;17.67;;;8.73;;
14294;SDS011;7231;59.370;18.016;2024-02-14T12:24:46;19.17;;;8.53;;
14294;SDS011;7231;59.370;18.016;2024-02-14T12:27:16;18.43;;;8.93;;
14294;SDS011;7231;59.370;18.016;2024-02-14T12:29:46;21.03;;;9.10;;
14294;SDS011;7231;59.370;18.016;2024-02-14T12:32:16;20.03;;;9.30;;
14294;SDS011;7231;59.370;18.016;2024-02-14T12:34:44;27.57;;;9.50;;
14294;SDS011;7231;59.370;18.016;2024-02-14T12:37:13;19.93;;;9.03;;
14294;SDS011;7231;59.370;18.016;2024-02-14T12:39:41;16.97;;;8.87;;
14294;SDS011;7231;59.370;18.016;2024-02-14T12:42:10;17.17;;;8.33;;
14294;SDS011;7231;59.370;18.016;2024-02-14T12:44:38;28.03;;;8.93;;
14294;SDS011;7231;59.370;18.016;2024-02-14T12:47:09;20.40;;;7.83;;
14294;SDS011;7231;59.370;18.016;2024-02-14T12:49:38;18.00;;;7.33;;
14294;SDS011;7231;59.370;18.016;2024-02-14T12:52:06;18.23;;;8.07;;
14294;SDS011;7231;59.370;18.016;2024-02-14T12:54:34;15.93;;;7.20;;
14294;SDS011;7231;59.370;18.016;2024-02-14T12:57:03;18.00;;;6.97;;
14294;SDS011;7231;59.370;18.016;2024-02-14T12:59:32;13.80;;;6.57;;
14294;SDS011;7231;59.370;18.016;2024-02-14T13:02:00;18.37;;;6.17;;
14294;SDS011;7231;59.370;18.016;2024-02-14T13:04:30;16.57;;;5.70;;
14294;SDS011;7231;59.370;18.016;2024-02-14T13:06:59;14.13;;;5.50;;
14294;SDS011;7231;59.370;18.016;2024-02-14T13:09:27;16.23;;;5.30;;
14294;SDS011;7231;59.370;18.016;2024-02-14T13:11:55;10.80;;;4.93;;
14294;SDS011;7231;59.370;18.016;2024-02-14T13:14:24;10.17;;;4.63;;
14294;SDS011;7231;59.370;18.016;2024-02-14T13:16:53;10.67;;;4.57;;
14294;SDS011;7231;59.370;18.016;2024-02-14T13:19:21;10.97;;;4.53;;
14294;SDS011;7231;59.370;18.016;2024-02-14T13:21:52;15.83;;;5.10;;
14294;SDS011;7231;59.370;18.016;2024-02-14T13:24:21;12.17;;;4.50;;
14294;SDS011;7231;59.370;18.016;2024-02-14T13:26:49;16.20;;;4.50;;
14294;SDS011;7231;59.370;18.016;2024-02-14T13:29:17;7.73;;;4.20;;
14294;SDS011;7231;59.370;18.016;2024-02-14T13:31:45;13.23;;;4.03;;
14294;SDS011;7231;59.370;18.016;2024-02-14T13:34:14;8.33;;;4.00;;
14294;SDS011;7231;59.370;18.016;2024-02-14T13:36:42;8.67;;;3.70;;
14294;SDS011;7231;59.370;18.016;2024-02-14T13:39:12;13.63;;;3.80;;
14294;SDS011;7231;59.370;18.016;2024-02-14T13:41:40;12.03;;;3.80;;
14294;SDS011;7231;59.370;18.016;2024-02-14T13:44:10;16.37;;;4.27;;
14294;SDS011;7231;59.370;18.016;2024-02-14T13:46:39;10.80;;;3.90;;
14294;SDS011;7231;59.370;18.016;2024-02-14T13:49:12;12.37;;;4.53;;
14294;SDS011;7231;59.370;18.016;2024-02-14T13:51:44;14.80;;;3.53;;
14294;SDS011;7231;59.370;18.016;2024-02-14T13:54:14;7.67;;;3.50;;
14294;SDS011;7231;59.370;18.016;2024-02-14T13:56:42;11.63;;;4.07;;
14294;SDS011;7231;59.370;18.016;2024-02-14T13:59:10;8.30;;;3.43;;
14294;SDS011;7231;59.370;18.016;2024-02-14T14:01:38;12.20;;;3.60;;
14294;SDS011;7231;59.370;18.016;2024-02-14T14:04:07;8.83;;;3.97;;
14294;SDS011;7231;59.370;18.016;2024-02-14T14:06:35;12.57;;;4.20;;
14294;SDS011;7231;59.370;18.016;2024-02-14T14:09:03;12.53;;;4.20;;
14294;SDS011;7231;59.370;18.016;2024-02-14T14:11:35;12.50;;;3.80;;
14294;SDS011;7231;59.370;18.016;2024-02-14T14:14:04;9.13;;;3.63;;
14294;SDS011;7231;59.370;18.016;2024-02-14T14:16:32;13.73;;;3.93;;
14294;SDS011;7231;59.370;18.016;2024-02-14T14:19:00;8.77;;;2.93;;
14294;SDS011;7231;59.370;18.016;2024-02-14T14:21:29;11.10;;;3.50;;
14294;SDS011;7231;59.370;18.016;2024-02-14T14:23:57;14.70;;;4.47;;
14294;SDS011;7231;59.370;18.016;2024-02-14T14:26:25;14.03;;;4.17;;
14294;SDS011;7231;59.370;18.016;2024-02-14T14:28:55;11.03;;;3.80;;
14294;SDS011;7231;59.370;18.016;2024-02-14T14:31:23;12.60;;;3.80;;
14294;SDS011;7231;59.370;18.016;2024-02-14T14:33:54;8.60;;;4.27;;
14294;SDS011;7231;59.370;18.016;2024-02-14T14:36:23;10.50;;;4.20;;
14294;SDS011;7231;59.370;18.016;2024-02-14T14:38:52;12.30;;;3.97;;